Darstellungsparameter: Aktuell verwendete Einstellungen:
Skalierung der Graphiken ... ?
xyx+y,   Skalierungsfaktor:      Skalierung: Modus: x, Faktor: 1
Darstellungszeitraum ... ?
Vom - - bis: - -   Zeitraum: 23.12.2021 - 23.12.2021
Min/Max/Avg-Anzeige ... ?
Zeige MMA aktuell
Zeige MMA Monat
Zeige MMA alles
Zeige --A aktuell
Zeige --A Monat
Zeige --A alles
Keine MMA-Anzeige
MMA:
Average (ber die Originaldaten)
MMA-Basis: 23.12.2021 - 23.12.2021
Quicknavigation für Darstellung... ?
Tage:      1T, 2T, 3T, 5T -1T -2T -3T -5T +1T +2T +3T +5T
Wochen: 1W, 2W, 3W -1W -2W -3W +1W +2W +3W
Monate: 1M, 3M, 6M -1M -3M -6M +1M +3M +6M
Jahre:    1J, 3J, 5J, 10J -1J -3J -5J -10J +1J +3J +5J +10J
Nutze für die Darstellung ... ?
Originaldaten oder Mittelwerte auf ...
Stundenbasis Tagesbasis Wochenbasis
Monatsbasis Jahresbasis      Datenbasis: Original-Daten
Darstellen als:
Statistik (Auto) Statistik J:M      Darstellung:
Zur Graphik,    zurück zur Übersicht aller Sensoren.
 
Tabellarische Datenbersicht: ?
 
Sensor: Nr:Datum:Temp:Abs-Feuchte:Windchill:Wind:
Aussen-T/F 1 23-12-2021 00:00:00 -5.1 C 3.21 g/m*3 -5.1 C 0 km/h
2 23-12-2021 00:05:00 -5.1 C 3.21 g/m*3 -5.1 C 0 km/h
3 23-12-2021 00:10:00 -5 C 3.23 g/m*3 -5 C 0 km/h
4 23-12-2021 00:15:00 -5 C 3.23 g/m*3 -5 C 0 km/h
5 23-12-2021 00:20:00 -4.9 C 3.26 g/m*3 -4.9 C 0 km/h
6 23-12-2021 00:25:00 -4.9 C 3.26 g/m*3 -4.9 C 0 km/h
7 23-12-2021 00:30:00 -4.9 C 3.26 g/m*3 -4.9 C 0 km/h
8 23-12-2021 00:35:00 -4.8 C 3.28 g/m*3 -4.8 C 0 km/h
9 23-12-2021 00:40:00 -4.8 C 3.28 g/m*3 -4.8 C 0 km/h
10 23-12-2021 00:45:00 -4.8 C 3.28 g/m*3 -4.8 C 0 km/h
11 23-12-2021 00:50:00 -4.8 C 3.28 g/m*3 -4.8 C 0 km/h
12 23-12-2021 00:55:00 -4.8 C 3.28 g/m*3 -4.8 C 0 km/h
13 23-12-2021 01:00:00 -4.8 C 3.28 g/m*3 -4.8 C 0 km/h
14 23-12-2021 01:05:00 -4.7 C 3.31 g/m*3 -4.7 C 0 km/h
15 23-12-2021 01:10:00 -4.7 C 3.34 g/m*3 -4.7 C 0 km/h
16 23-12-2021 01:15:00 -4.6 C 3.36 g/m*3 -4.6 C 0 km/h
17 23-12-2021 01:20:00 -4.6 C 3.36 g/m*3 -4.6 C 0 km/h
18 23-12-2021 01:25:00 -4.6 C 3.33 g/m*3 -4.6 C 0 km/h
19 23-12-2021 01:30:00 -4.6 C 3.33 g/m*3 -4.6 C 0 km/h
20 23-12-2021 01:35:00 -4.6 C 3.33 g/m*3 -4.6 C 0 km/h
21 23-12-2021 01:40:00 -4.6 C 3.33 g/m*3 -4.6 C 0 km/h
22 23-12-2021 01:45:00 -4.5 C 3.35 g/m*3 -4.5 C 0 km/h
23 23-12-2021 01:50:00 -4.4 C 3.38 g/m*3 -4.4 C 0 km/h
24 23-12-2021 01:55:00 -4.4 C 3.38 g/m*3 -4.4 C 0 km/h
25 23-12-2021 02:00:00 -4.4 C 3.41 g/m*3 -4.4 C 0 km/h
Sensor: Nr:Datum:Temp:Abs-Feuchte:Windchill:Wind:
Aussen-T/F 26 23-12-2021 02:05:00 -4.3 C 3.44 g/m*3 -4.3 C 0 km/h
27 23-12-2021 02:10:00 -4.4 C 3.41 g/m*3 -4.4 C 0 km/h
28 23-12-2021 02:15:00 -4.4 C 3.41 g/m*3 -4.4 C 0 km/h
29 23-12-2021 02:20:00 -4.4 C 3.38 g/m*3 -4.4 C 0 km/h
30 23-12-2021 02:25:00 -4.4 C 3.38 g/m*3 -4.4 C 0 km/h
31 23-12-2021 02:30:00 -4.5 C 3.35 g/m*3 -4.5 C 0 km/h
32 23-12-2021 02:35:00 -4.5 C 3.35 g/m*3 -4.5 C 0 km/h
33 23-12-2021 02:40:00 -4.6 C 3.33 g/m*3 -4.6 C 0 km/h
34 23-12-2021 02:45:00 -4.6 C 3.33 g/m*3 -4.6 C 0 km/h
35 23-12-2021 02:50:00 -4.7 C 3.31 g/m*3 -4.7 C 0 km/h
36 23-12-2021 02:55:00 -4.8 C 3.28 g/m*3 -4.8 C 0 km/h
37 23-12-2021 03:00:00 -4.8 C 3.28 g/m*3 -4.8 C 0 km/h
38 23-12-2021 03:05:00 -4.9 C 3.26 g/m*3 -4.9 C 0 km/h
39 23-12-2021 03:10:00 -5 C 3.23 g/m*3 -5 C 0 km/h
40 23-12-2021 03:15:00 -5.1 C 3.21 g/m*3 -5.1 C 0 km/h
41 23-12-2021 03:20:00 -5.2 C 3.19 g/m*3 -5.2 C 0 km/h
42 23-12-2021 03:25:00 -5.2 C 3.19 g/m*3 -5.2 C 0 km/h
43 23-12-2021 03:30:00 -5.2 C 3.19 g/m*3 -5.2 C 0 km/h
44 23-12-2021 03:35:00 -5.2 C 3.19 g/m*3 -5.2 C 0 km/h
45 23-12-2021 03:40:00 -5.2 C 3.19 g/m*3 -5.2 C 0 km/h
46 23-12-2021 03:45:00 -5.1 C 3.21 g/m*3 -5.1 C 0 km/h
47 23-12-2021 03:50:00 -5 C 3.23 g/m*3 -5 C 0 km/h
48 23-12-2021 03:55:00 -4.9 C 3.26 g/m*3 -4.9 C 0 km/h
49 23-12-2021 04:00:00 -4.8 C 3.28 g/m*3 -4.8 C 0 km/h
50 23-12-2021 04:05:00 -4.8 C 3.28 g/m*3 -4.8 C 0 km/h
Sensor: Nr:Datum:Temp:Abs-Feuchte:Windchill:Wind:
Aussen-T/F 51 23-12-2021 04:10:00 -4.7 C 3.31 g/m*3 -4.7 C 0 km/h
52 23-12-2021 04:15:00 -4.7 C 3.31 g/m*3 -4.7 C 0 km/h
53 23-12-2021 04:20:00 -4.7 C 3.31 g/m*3 -4.7 C 0 km/h
54 23-12-2021 04:25:00 -4.6 C 3.33 g/m*3 -4.6 C 0 km/h
55 23-12-2021 04:30:00 -4.5 C 3.35 g/m*3 -4.5 C 0 km/h
56 23-12-2021 04:35:00 -4.4 C 3.38 g/m*3 -4.4 C 0 km/h
57 23-12-2021 04:40:00 -4.4 C 3.38 g/m*3 -4.4 C 0 km/h
58 23-12-2021 04:45:00 -4.4 C 3.41 g/m*3 -4.4 C 0 km/h
59 23-12-2021 04:50:00 -4.3 C 3.44 g/m*3 -4.3 C 0 km/h
60 23-12-2021 04:55:00 -4.3 C 3.44 g/m*3 -4.3 C 0 km/h
61 23-12-2021 05:00:00 -4.2 C 3.46 g/m*3 -4.2 C 0 km/h
62 23-12-2021 05:05:00 -4.2 C 3.46 g/m*3 -4.2 C 0 km/h
63 23-12-2021 05:10:00 -4.2 C 3.46 g/m*3 -4.2 C 0 km/h
64 23-12-2021 05:15:00 -4.1 C 3.49 g/m*3 -4.1 C 0 km/h
65 23-12-2021 05:20:00 -4.1 C 3.49 g/m*3 -4.1 C 0 km/h
66 23-12-2021 05:25:00 -4.1 C 3.49 g/m*3 -4.1 C 0 km/h
67 23-12-2021 05:30:00 -4.1 C 3.45 g/m*3 -4.1 C 0 km/h
68 23-12-2021 05:35:00 -4.1 C 3.45 g/m*3 -4.1 C 0 km/h
69 23-12-2021 05:40:00 -4.1 C 3.45 g/m*3 -4.1 C 0 km/h
70 23-12-2021 05:45:00 -4.1 C 3.45 g/m*3 -4.1 C 0 km/h
71 23-12-2021 05:50:00 -4.1 C 3.49 g/m*3 -4.1 C 0 km/h
72 23-12-2021 05:55:00 -3.9 C 3.54 g/m*3 -3.9 C 0 km/h
73 23-12-2021 06:00:00 -3.9 C 3.54 g/m*3 -3.9 C 0 km/h
74 23-12-2021 06:05:00 -3.9 C 3.54 g/m*3 -3.9 C 0 km/h
75 23-12-2021 06:10:00 -3.8 C 3.56 g/m*3 -3.8 C 0 km/h
Sensor: Nr:Datum:Temp:Abs-Feuchte:Windchill:Wind:
Aussen-T/F 76 23-12-2021 06:15:00 -3.8 C 3.56 g/m*3 -3.8 C 0 km/h
77 23-12-2021 06:20:00 -3.8 C 3.56 g/m*3 -3.8 C 0 km/h
78 23-12-2021 06:25:00 -3.7 C 3.59 g/m*3 -3.7 C 0 km/h
79 23-12-2021 06:30:00 -3.7 C 3.59 g/m*3 -3.7 C 0 km/h
80 23-12-2021 06:35:00 -3.7 C 3.59 g/m*3 -3.7 C 0 km/h
81 23-12-2021 06:40:00 -3.7 C 3.59 g/m*3 -3.7 C 0 km/h
82 23-12-2021 06:45:00 -3.7 C 3.59 g/m*3 -3.7 C 0 km/h
83 23-12-2021 06:50:00 -3.7 C 3.59 g/m*3 -3.7 C 0 km/h
84 23-12-2021 06:55:00 -3.7 C 3.59 g/m*3 -3.7 C 0 km/h
85 23-12-2021 07:00:00 -3.7 C 3.59 g/m*3 -3.7 C 0 km/h
86 23-12-2021 07:05:00 -3.7 C 3.59 g/m*3 -3.7 C 0 km/h
87 23-12-2021 07:10:00 -3.8 C 3.56 g/m*3 -3.8 C 0 km/h
88 23-12-2021 07:15:00 -3.9 C 3.5 g/m*3 -3.9 C 0 km/h
89 23-12-2021 07:20:00 -4 C 3.48 g/m*3 -4 C 0 km/h
90 23-12-2021 07:25:00 -4.1 C 3.45 g/m*3 -4.1 C 0 km/h
91 23-12-2021 07:30:00 -4.1 C 3.45 g/m*3 -4.1 C 0 km/h
92 23-12-2021 07:35:00 -4.2 C 3.43 g/m*3 -4.2 C 0 km/h
93 23-12-2021 07:40:00 -4.2 C 3.43 g/m*3 -4.2 C 0 km/h
94 23-12-2021 07:45:00 -4.2 C 3.43 g/m*3 -4.2 C 0 km/h
95 23-12-2021 07:50:00 -4.2 C 3.43 g/m*3 -4.2 C 0 km/h
96 23-12-2021 07:55:00 -4.2 C 3.43 g/m*3 -4.2 C 0 km/h
97 23-12-2021 08:00:00 -4.1 C 3.45 g/m*3 -4.1 C 0 km/h
98 23-12-2021 08:05:00 -4.1 C 3.45 g/m*3 -4.1 C 0 km/h
99 23-12-2021 08:10:00 -4 C 3.51 g/m*3 -4 C 0 km/h
100 23-12-2021 08:15:00 -3.9 C 3.54 g/m*3 -3.9 C 0 km/h
Sensor: Nr:Datum:Temp:Abs-Feuchte:Windchill:Wind:
Aussen-T/F 101 23-12-2021 08:20:00 -3.8 C 3.56 g/m*3 -3.8 C 0 km/h
102 23-12-2021 08:25:00 -3.8 C 3.56 g/m*3 -3.8 C 0 km/h
103 23-12-2021 08:30:00 -3.7 C 3.59 g/m*3 -3.7 C 0 km/h
104 23-12-2021 08:35:00 -3.7 C 3.59 g/m*3 -3.7 C 0 km/h
105 23-12-2021 08:40:00 -3.6 C 3.61 g/m*3 -3.6 C 0 km/h
106 23-12-2021 08:45:00 -3.6 C 3.61 g/m*3 -3.6 C 0 km/h
107 23-12-2021 08:50:00 -3.5 C 3.64 g/m*3 -3.5 C 0 km/h
108 23-12-2021 08:55:00 -3.4 C 3.67 g/m*3 -3.4 C 0 km/h
109 23-12-2021 09:00:00 -3.3 C 3.69 g/m*3 -3.3 C 0 km/h
110 23-12-2021 09:05:00 -3.3 C 3.69 g/m*3 -3.3 C 0 km/h
111 23-12-2021 09:10:00 -3.2 C 3.72 g/m*3 -3.2 C 0 km/h
112 23-12-2021 09:15:00 -3.1 C 3.74 g/m*3 -3.1 C 0 km/h
113 23-12-2021 09:20:00 -2.9 C 3.8 g/m*3 -2.9 C 0 km/h
114 23-12-2021 09:25:00 -2.9 C 3.8 g/m*3 -2.9 C 0 km/h
115 23-12-2021 09:30:00 -2.8 C 3.82 g/m*3 -2.8 C 0 km/h
116 23-12-2021 09:35:00 -2.7 C 3.85 g/m*3 -2.7 C 1.6 km/h
117 23-12-2021 09:40:00 -2.6 C 3.88 g/m*3 -2.6 C 1.6 km/h
118 23-12-2021 09:45:00 -2.4 C 3.93 g/m*3 -2.4 C 0 km/h
119 23-12-2021 09:50:00 -2.3 C 3.96 g/m*3 -2.3 C 0 km/h
120 23-12-2021 09:55:00 -2.2 C 4.03 g/m*3 -2.2 C 0 km/h
121 23-12-2021 10:00:00 -2 C 4.05 g/m*3 -2 C 1.6 km/h
122 23-12-2021 10:05:00 -1.8 C 4.15 g/m*3 -1.8 C 3.2 km/h
123 23-12-2021 10:10:00 -1.6 C 4.21 g/m*3 -1.6 C 0 km/h
124 23-12-2021 10:15:00 -1.5 C 4.23 g/m*3 -1.5 C 0 km/h
125 23-12-2021 10:20:00 -1.4 C 4.26 g/m*3 -1.4 C 0 km/h
Sensor: Nr:Datum:Temp:Abs-Feuchte:Windchill:Wind:
Aussen-T/F 126 23-12-2021 10:25:00 -1.2 C 4.32 g/m*3 -1.2 C 1.6 km/h
127 23-12-2021 10:30:00 -1.1 C 4.35 g/m*3 -1.1 C 3.2 km/h
128 23-12-2021 10:35:00 -0.9 C 4.42 g/m*3 -0.9 C 1.6 km/h
129 23-12-2021 10:40:00 -0.8 C 4.45 g/m*3 -0.8 C 0 km/h
130 23-12-2021 10:45:00 -0.8 C 4.45 g/m*3 -0.8 C 0 km/h
131 23-12-2021 10:50:00 -0.7 C 4.48 g/m*3 -0.7 C 0 km/h
132 23-12-2021 10:55:00 -0.7 C 4.48 g/m*3 -0.7 C 0 km/h
133 23-12-2021 11:00:00 -0.6 C 4.51 g/m*3 -0.6 C 0 km/h
134 23-12-2021 11:05:00 -0.5 C 4.54 g/m*3 -0.5 C 0 km/h
135 23-12-2021 11:10:00 -0.4 C 4.57 g/m*3 -0.4 C 0 km/h
136 23-12-2021 11:15:00 -0.3 C 4.6 g/m*3 -0.3 C 1.6 km/h
137 23-12-2021 11:20:00 -0.2 C 4.64 g/m*3 -0.2 C 1.6 km/h
138 23-12-2021 11:25:00 -0.1 C 4.67 g/m*3 -0.1 C 1.6 km/h
139 23-12-2021 11:30:00 0 C 4.7 g/m*3 0 C 3.2 km/h
140 23-12-2021 11:35:00 0.1 C 4.73 g/m*3 0.1 C 3.2 km/h
141 23-12-2021 11:40:00 0.2 C 4.77 g/m*3 0.2 C 3.2 km/h
142 23-12-2021 11:45:00 0.3 C 4.8 g/m*3 0.3 C 3.2 km/h
143 23-12-2021 11:50:00 0.3 C 4.8 g/m*3 0.3 C 3.2 km/h
144 23-12-2021 11:55:00 0.4 C 4.83 g/m*3 0.4 C 1.6 km/h
145 23-12-2021 12:00:00 0.4 C 4.83 g/m*3 -1.72 C 6.4 km/h
146 23-12-2021 12:05:00 0.6 C 4.9 g/m*3 -1.49 C 6.4 km/h
147 23-12-2021 12:10:00 0.7 C 4.93 g/m*3 -1.95 C 8.1 km/h
148 23-12-2021 12:15:00 0.7 C 4.93 g/m*3 -1.37 C 6.4 km/h
149 23-12-2021 12:20:00 0.8 C 4.91 g/m*3 -1.26 C 6.4 km/h
150 23-12-2021 12:25:00 0.8 C 4.91 g/m*3 0.8 C 1.6 km/h
Sensor: Nr:Datum:Temp:Abs-Feuchte:Windchill:Wind:
Aussen-T/F 151 23-12-2021 12:30:00 0.9 C 4.95 g/m*3 0.9 C 0 km/h
152 23-12-2021 12:35:00 0.9 C 5 g/m*3 0.9 C 3.2 km/h
153 23-12-2021 12:40:00 1 C 4.98 g/m*3 1 C 1.6 km/h
154 23-12-2021 12:45:00 1.1 C 5.02 g/m*3 1.1 C 4.8 km/h
155 23-12-2021 12:50:00 1.2 C 5.05 g/m*3 1.2 C 3.2 km/h
156 23-12-2021 12:55:00 1.2 C 5.05 g/m*3 1.2 C 3.2 km/h
157 23-12-2021 13:00:00 1.3 C 5.09 g/m*3 1.3 C 4.8 km/h
158 23-12-2021 13:05:00 1.3 C 5.09 g/m*3 -1.69 C 9.7 km/h
159 23-12-2021 13:10:00 1.4 C 5.12 g/m*3 -1.57 C 9.7 km/h
160 23-12-2021 13:15:00 1.4 C 5.12 g/m*3 -1.12 C 8.1 km/h
161 23-12-2021 13:20:00 1.5 C 5.16 g/m*3 1.5 C 3.2 km/h
162 23-12-2021 13:25:00 1.6 C 5.19 g/m*3 1.6 C 3.2 km/h
163 23-12-2021 13:30:00 1.7 C 5.23 g/m*3 -1.21 C 9.7 km/h
164 23-12-2021 13:35:00 1.7 C 5.23 g/m*3 -0.77 C 8.1 km/h
165 23-12-2021 13:40:00 1.8 C 5.26 g/m*3 -0.1 C 6.4 km/h
166 23-12-2021 13:45:00 1.9 C 5.3 g/m*3 -1.35 C 11.3 km/h
167 23-12-2021 13:50:00 1.9 C 5.3 g/m*3 0.01 C 6.4 km/h
168 23-12-2021 13:55:00 2 C 5.33 g/m*3 2 C 4.8 km/h
169 23-12-2021 14:00:00 2 C 5.33 g/m*3 2 C 4.8 km/h
170 23-12-2021 14:05:00 2 C 5.33 g/m*3 2 C 1.6 km/h
171 23-12-2021 14:10:00 2.1 C 5.31 g/m*3 2.1 C 0 km/h
172 23-12-2021 14:15:00 2.1 C 5.31 g/m*3 2.1 C 3.2 km/h
173 23-12-2021 14:20:00 2.1 C 5.37 g/m*3 2.1 C 3.2 km/h
174 23-12-2021 14:25:00 2.2 C 5.41 g/m*3 2.2 C 1.6 km/h
175 23-12-2021 14:30:00 2.2 C 5.41 g/m*3 2.2 C 3.2 km/h
Sensor: Nr:Datum:Temp:Abs-Feuchte:Windchill:Wind:
Aussen-T/F 176 23-12-2021 14:35:00 2.2 C 5.41 g/m*3 0.36 C 6.4 km/h
177 23-12-2021 14:40:00 2.2 C 5.41 g/m*3 2.2 C 3.2 km/h
178 23-12-2021 14:45:00 2.2 C 5.41 g/m*3 2.2 C 1.6 km/h
179 23-12-2021 14:50:00 2.3 C 5.44 g/m*3 2.3 C 0 km/h
180 23-12-2021 14:55:00 2.3 C 5.44 g/m*3 2.3 C 0 km/h
181 23-12-2021 15:00:00 2.3 C 5.44 g/m*3 2.3 C 1.6 km/h
182 23-12-2021 15:05:00 2.3 C 5.44 g/m*3 2.3 C 0 km/h
183 23-12-2021 15:10:00 2.3 C 5.44 g/m*3 2.3 C 0 km/h
184 23-12-2021 15:15:00 2.3 C 5.44 g/m*3 2.3 C 0 km/h
185 23-12-2021 15:20:00 2.3 C 5.44 g/m*3 2.3 C 0 km/h
186 23-12-2021 15:25:00 2.3 C 5.44 g/m*3 2.3 C 0 km/h
187 23-12-2021 15:30:00 2.3 C 5.44 g/m*3 2.3 C 1.6 km/h
188 23-12-2021 15:35:00 2.3 C 5.44 g/m*3 2.3 C 0 km/h
189 23-12-2021 15:40:00 2.3 C 5.44 g/m*3 2.3 C 0 km/h
190 23-12-2021 15:45:00 2.3 C 5.44 g/m*3 2.3 C 0 km/h
191 23-12-2021 15:50:00 2.3 C 5.44 g/m*3 2.3 C 0 km/h
192 23-12-2021 15:55:00 2.3 C 5.44 g/m*3 2.3 C 0 km/h
193 23-12-2021 16:00:00 2.3 C 5.44 g/m*3 2.3 C 0 km/h
194 23-12-2021 16:05:00 2.4 C 5.48 g/m*3 2.4 C 4.8 km/h
195 23-12-2021 16:10:00 2.6 C 5.56 g/m*3 0.82 C 6.4 km/h
196 23-12-2021 16:15:00 2.7 C 5.59 g/m*3 2.7 C 3.2 km/h
197 23-12-2021 16:20:00 2.7 C 5.59 g/m*3 2.7 C 0 km/h
198 23-12-2021 16:25:00 2.7 C 5.59 g/m*3 2.7 C 3.2 km/h
199 23-12-2021 16:30:00 2.8 C 5.57 g/m*3 2.8 C 3.2 km/h
200 23-12-2021 16:35:00 2.8 C 5.57 g/m*3 2.8 C 4.8 km/h
Sensor: Nr:Datum:Temp:Abs-Feuchte:Windchill:Wind:
Aussen-T/F 201 23-12-2021 16:40:00 2.8 C 5.57 g/m*3 2.8 C 1.6 km/h
202 23-12-2021 16:45:00 2.8 C 5.57 g/m*3 2.8 C 3.2 km/h
203 23-12-2021 16:50:00 2.8 C 5.57 g/m*3 1.05 C 6.4 km/h
204 23-12-2021 16:55:00 2.9 C 5.61 g/m*3 2.9 C 4.8 km/h
205 23-12-2021 17:00:00 2.9 C 5.61 g/m*3 1.17 C 6.4 km/h
206 23-12-2021 17:05:00 3.1 C 5.69 g/m*3 3.1 C 3.2 km/h
207 23-12-2021 17:10:00 3.1 C 5.69 g/m*3 0.46 C 9.7 km/h
208 23-12-2021 17:15:00 3.3 C 5.76 g/m*3 0.02 C 12.9 km/h
209 23-12-2021 17:20:00 3.7 C 5.92 g/m*3 -0.48 C 19.3 km/h
210 23-12-2021 17:25:00 3.8 C 5.96 g/m*3 1.29 C 9.7 km/h
211 23-12-2021 17:30:00 3.9 C 5.94 g/m*3 -0.23 C 19.3 km/h
212 23-12-2021 17:35:00 4.1 C 6.02 g/m*3 -0.18 C 20.9 km/h
213 23-12-2021 17:40:00 4.3 C 6.03 g/m*3 0.07 C 20.9 km/h
214 23-12-2021 17:45:00 4.4 C 6.07 g/m*3 1.36 C 12.9 km/h
215 23-12-2021 17:50:00 4.6 C 6.09 g/m*3 0.65 C 19.3 km/h
216 23-12-2021 17:55:00 4.7 C 6.13 g/m*3 0.78 C 19.3 km/h
217 23-12-2021 18:00:00 4.8 C 6.17 g/m*3 0.52 C 22.5 km/h
218 23-12-2021 18:05:00 4.9 C 6.21 g/m*3 1.46 C 16.1 km/h
219 23-12-2021 18:10:00 5 C 6.18 g/m*3 1.36 C 17.7 km/h
220 23-12-2021 18:15:00 5 C 6.18 g/m*3 1.15 C 19.3 km/h
221 23-12-2021 18:20:00 5.1 C 6.29 g/m*3 1.49 C 17.7 km/h
222 23-12-2021 18:25:00 5.1 C 6.29 g/m*3 0.74 C 24.1 km/h
223 23-12-2021 18:30:00 5.1 C 6.29 g/m*3 3.71 C 6.4 km/h
224 23-12-2021 18:35:00 5.1 C 6.29 g/m*3 1.95 C 14.5 km/h
225 23-12-2021 18:40:00 5.1 C 6.29 g/m*3 2.51 C 11.3 km/h
Sensor: Nr:Datum:Temp:Abs-Feuchte:Windchill:Wind:
Aussen-T/F 226 23-12-2021 18:45:00 5.2 C 6.33 g/m*3 2.34 C 12.9 km/h
227 23-12-2021 18:50:00 5.2 C 6.33 g/m*3 1.61 C 17.7 km/h
228 23-12-2021 18:55:00 5.2 C 6.33 g/m*3 1.83 C 16.1 km/h
229 23-12-2021 19:00:00 5.3 C 6.31 g/m*3 1.96 C 16.1 km/h
230 23-12-2021 19:05:00 5.2 C 6.27 g/m*3 1.03 C 22.5 km/h
231 23-12-2021 19:10:00 5.3 C 6.38 g/m*3 1.96 C 16.1 km/h
232 23-12-2021 19:15:00 5.3 C 6.38 g/m*3 1.74 C 17.7 km/h
233 23-12-2021 19:20:00 5.3 C 6.38 g/m*3 1.96 C 16.1 km/h
234 23-12-2021 19:25:00 5.4 C 6.42 g/m*3 1.29 C 22.5 km/h
235 23-12-2021 19:30:00 5.4 C 6.42 g/m*3 1.47 C 20.9 km/h
236 23-12-2021 19:35:00 5.5 C 6.46 g/m*3 2.2 C 16.1 km/h
237 23-12-2021 19:40:00 5.5 C 6.46 g/m*3 1.99 C 17.7 km/h
238 23-12-2021 19:45:00 5.6 C 6.5 g/m*3 1.91 C 19.3 km/h
239 23-12-2021 19:50:00 5.7 C 6.48 g/m*3 2.03 C 19.3 km/h
240 23-12-2021 19:55:00 5.7 C 6.48 g/m*3 2.03 C 19.3 km/h
241 23-12-2021 20:00:00 5.7 C 6.48 g/m*3 2.03 C 19.3 km/h
242 23-12-2021 20:05:00 5.7 C 6.48 g/m*3 2.24 C 17.7 km/h
243 23-12-2021 20:10:00 5.7 C 6.48 g/m*3 2.24 C 17.7 km/h
244 23-12-2021 20:15:00 5.7 C 6.48 g/m*3 2.03 C 19.3 km/h
245 23-12-2021 20:20:00 5.8 C 6.59 g/m*3 2.16 C 19.3 km/h
246 23-12-2021 20:25:00 5.8 C 6.52 g/m*3 2.36 C 17.7 km/h
247 23-12-2021 20:30:00 5.8 C 6.52 g/m*3 2.58 C 16.1 km/h
248 23-12-2021 20:35:00 5.8 C 6.59 g/m*3 1.8 C 22.5 km/h
249 23-12-2021 20:40:00 5.8 C 6.52 g/m*3 2.81 C 14.5 km/h
250 23-12-2021 20:45:00 5.8 C 6.52 g/m*3 2.81 C 14.5 km/h
Sensor: Nr:Datum:Temp:Abs-Feuchte:Windchill:Wind:
Aussen-T/F 251 23-12-2021 20:50:00 5.8 C 6.59 g/m*3 2.16 C 19.3 km/h
252 23-12-2021 20:55:00 5.8 C 6.59 g/m*3 1.8 C 22.5 km/h
253 23-12-2021 21:00:00 5.8 C 6.59 g/m*3 3.07 C 12.9 km/h
254 23-12-2021 21:05:00 5.9 C 6.63 g/m*3 1.93 C 22.5 km/h
255 23-12-2021 21:10:00 5.9 C 6.63 g/m*3 2.29 C 19.3 km/h
256 23-12-2021 21:15:00 6.1 C 6.72 g/m*3 1.86 C 25.7 km/h
257 23-12-2021 21:20:00 6.1 C 6.72 g/m*3 2.18 C 22.5 km/h
258 23-12-2021 21:25:00 6.1 C 6.65 g/m*3 2.54 C 19.3 km/h
259 23-12-2021 21:30:00 6.2 C 6.69 g/m*3 2.66 C 19.3 km/h
260 23-12-2021 21:35:00 6.2 C 6.69 g/m*3 3.3 C 14.5 km/h
261 23-12-2021 21:40:00 6.2 C 6.69 g/m*3 3.3 C 14.5 km/h
262 23-12-2021 21:45:00 6.2 C 6.69 g/m*3 2.86 C 17.7 km/h
263 23-12-2021 21:50:00 6.3 C 6.74 g/m*3 2.79 C 19.3 km/h
264 23-12-2021 21:55:00 6.3 C 6.74 g/m*3 2.61 C 20.9 km/h
265 23-12-2021 22:00:00 6.4 C 6.78 g/m*3 3.11 C 17.7 km/h
266 23-12-2021 22:05:00 6.5 C 6.82 g/m*3 2.86 C 20.9 km/h
267 23-12-2021 22:10:00 6.6 C 6.87 g/m*3 3.79 C 14.5 km/h
268 23-12-2021 22:15:00 6.6 C 6.79 g/m*3 4.04 C 12.9 km/h
269 23-12-2021 22:20:00 6.7 C 6.84 g/m*3 3.92 C 14.5 km/h
270 23-12-2021 22:25:00 6.7 C 6.84 g/m*3 3.29 C 19.3 km/h
271 23-12-2021 22:30:00 6.8 C 6.88 g/m*3 2.91 C 24.1 km/h
272 23-12-2021 22:35:00 6.8 C 6.88 g/m*3 4.29 C 12.9 km/h
273 23-12-2021 22:40:00 6.8 C 6.88 g/m*3 4.04 C 14.5 km/h
274 23-12-2021 22:45:00 6.8 C 6.88 g/m*3 3.61 C 17.7 km/h
275 23-12-2021 22:50:00 6.9 C 6.93 g/m*3 4.16 C 14.5 km/h
Sensor: Nr:Datum:Temp:Abs-Feuchte:Windchill:Wind:
Aussen-T/F 276 23-12-2021 22:55:00 7 C 6.97 g/m*3 3.02 C 25.7 km/h
277 23-12-2021 23:00:00 7.2 C 7.06 g/m*3 4.11 C 17.7 km/h
278 23-12-2021 23:05:00 7.2 C 7.06 g/m*3 3.92 C 19.3 km/h
279 23-12-2021 23:10:00 7.3 C 7.03 g/m*3 3.87 C 20.9 km/h
280 23-12-2021 23:15:00 7.4 C 7.08 g/m*3 4.17 C 19.3 km/h
281 23-12-2021 23:20:00 7.4 C 7.08 g/m*3 4.56 C 16.1 km/h
282 23-12-2021 23:25:00 7.5 C 7.12 g/m*3 4.48 C 17.7 km/h
283 23-12-2021 23:30:00 7.5 C 7.12 g/m*3 4.13 C 20.9 km/h
284 23-12-2021 23:35:00 7.6 C 7.17 g/m*3 4.61 C 17.7 km/h
285 23-12-2021 23:40:00 7.6 C 7.17 g/m*3 4.61 C 17.7 km/h
286 23-12-2021 23:45:00 7.7 C 7.22 g/m*3 4.93 C 16.1 km/h
287 23-12-2021 23:50:00 7.7 C 7.22 g/m*3 4.07 C 24.1 km/h
288 23-12-2021 23:55:00 7.7 C 7.14 g/m*3 4.73 C 17.7 km/h

Legende:
   Min
   Max


Maximal/Minimal-Werte vom 23.12.2021 - 23.12.2021

Sensor Min Max Avg
Temp
(Aussen-T/F)
-5.2 °C
23-12-2021  03:20:00
7.7 °C
23-12-2021  23:45:00
0.28 °C
Abs-Feuchte
(Aussen-T/F)
3.19 g/m*3
23-12-2021  03:20:00
7.22 g/m*3
23-12-2021  23:45:00
4.81 g/m*3
Windchill
(Aussen-T/F)
-5.2 C
23-12-2021  03:20:00
4.93 C
23-12-2021  23:45:00
-0.82 C

Die Daten stammen von einer Davis Vantage Pro 2 Wetter-Station und werden unter Linux mit der Software wview2wettercgi und aufbereitet. Alle Angaben erfolgen ohne Gewähr für ihre Vollständigkeit oder Richtigkeit.
Kontakt: Rainer Krienke krienke@uni-koblenz.de . Meine Webseiten an der Uni Koblenz oder privat.
Version: $Revision: 0.78 $